createdAt,value
2016-11-25T00:00:06.216Z,89.29
2016-11-25T00:00:47.044Z,89.29
2016-11-25T00:01:27.696Z,89.76
2016-11-25T00:02:08.463Z,89.76
2016-11-25T00:02:49.126Z,90.24
2016-11-25T00:03:29.801Z,90.05
2016-11-25T00:04:10.501Z,89.76
2016-11-25T00:04:51.112Z,89.58
2016-11-25T00:05:31.836Z,89.1
2016-11-25T00:06:12.557Z,89.48
2016-11-25T00:06:53.284Z,90.33
2016-11-25T00:07:33.997Z,90.24
2016-11-25T00:08:14.766Z,90.24
2016-11-25T00:08:55.403Z,90.24
2016-11-25T00:09:37.081Z,89.58
2016-11-25T00:10:17.853Z,89.67
2016-11-25T00:10:58.506Z,89.58
2016-11-25T00:11:39.187Z,89.58
2016-11-25T00:12:19.873Z,89.39
2016-11-25T00:13:00.552Z,89.33
2016-11-25T00:13:41.213Z,89.9
2016-11-25T00:14:21.876Z,89.76
2016-11-25T00:15:02.542Z,89.76
2016-11-25T00:15:43.222Z,89.29
2016-11-25T00:16:23.924Z,89.67
2016-11-25T00:17:04.618Z,89.39
2016-11-25T00:17:45.291Z,89.81
2016-11-25T00:18:25.996Z,89.58
2016-11-25T00:19:06.608Z,89.67
2016-11-25T00:19:47.415Z,89.53
2016-11-25T00:20:28.042Z,89.33
2016-11-25T00:21:08.746Z,89.14
2016-11-25T00:21:49.408Z,89.43
2016-11-25T00:22:30.090Z,89.9
2016-11-25T00:23:10.754Z,89.62
2016-11-25T00:23:51.422Z,89.81
2016-11-25T00:24:32.135Z,89.33
2016-11-25T00:25:12.813Z,89.14
2016-11-25T00:25:53.587Z,89.33
2016-11-25T00:26:34.282Z,89.81
2016-11-25T00:27:14.912Z,89.33
2016-11-25T00:27:55.583Z,89.24
2016-11-25T00:28:36.232Z,89.33
2016-11-25T00:29:16.914Z,89.24
2016-11-25T00:29:57.606Z,89.81
2016-11-25T00:30:38.317Z,89.72
2016-11-25T00:31:19.296Z,89.53
2016-11-25T00:31:59.998Z,89.33
2016-11-25T00:32:40.644Z,89.62
2016-11-25T00:33:21.297Z,89.62
2016-11-25T00:34:02.011Z,89.9
2016-11-25T00:34:42.703Z,89.43
2016-11-25T00:35:23.397Z,89.9
2016-11-25T00:36:04.065Z,89.81
2016-11-25T00:36:44.820Z,89.43
2016-11-25T00:37:25.489Z,89.33
2016-11-25T00:38:06.296Z,89.43
2016-11-25T00:38:47.133Z,89.81
2016-11-25T00:39:27.838Z,89.81
2016-11-25T00:40:08.575Z,89.9
2016-11-25T00:40:49.282Z,89.72
2016-11-25T00:41:29.945Z,90
2016-11-25T00:42:10.718Z,90
2016-11-25T00:42:51.429Z,89.81
2016-11-25T00:43:32.159Z,89.24
2016-11-25T00:44:12.931Z,88.76
2016-11-25T00:44:53.683Z,89.33
2016-11-25T00:45:34.622Z,89.33
2016-11-25T00:46:15.343Z,89.33
2016-11-25T00:46:56.068Z,89.05
2016-11-25T00:47:36.808Z,88.95
2016-11-25T00:48:17.476Z,89.24
2016-11-25T00:48:58.092Z,89.05
2016-11-25T00:49:38.698Z,88.57
2016-11-25T00:50:19.497Z,88.76
2016-11-25T00:51:00.298Z,89.05
2016-11-25T00:51:41.056Z,88.67
2016-11-25T00:52:21.756Z,88.76
2016-11-25T00:53:02.461Z,88.39
2016-11-25T00:53:43.138Z,89.24
2016-11-25T00:54:23.825Z,88.95
2016-11-25T00:55:04.543Z,88.95
2016-11-25T00:55:45.168Z,88.48
2016-11-25T00:56:25.819Z,88.76
2016-11-25T00:57:06.423Z,88.67
2016-11-25T00:57:47.051Z,88.76
2016-11-25T00:58:27.660Z,88.95
2016-11-25T00:59:08.271Z,88.95
2016-11-25T00:59:49.033Z,89.14
2016-11-25T01:00:29.703Z,88.76
2016-11-25T01:01:10.431Z,89.14
2016-11-25T01:01:51.213Z,88.86
2016-11-25T01:02:31.870Z,88.86
2016-11-25T01:03:12.561Z,88.48
2016-11-25T01:03:53.257Z,88.67
2016-11-25T01:04:33.941Z,88.57
2016-11-25T01:05:14.610Z,88.57
2016-11-25T01:05:55.272Z,88.67
2016-11-25T01:06:35.898Z,88.95
2016-11-25T01:07:16.604Z,89.05
2016-11-25T01:07:57.271Z,88.76
2016-11-25T01:08:38.065Z,88.86
2016-11-25T01:09:18.890Z,88.95
2016-11-25T01:09:59.656Z,88.76
2016-11-25T01:10:40.380Z,89.24
2016-11-25T01:11:21.019Z,89.14
2016-11-25T01:12:01.667Z,88.67
2016-11-25T01:12:42.264Z,88.95
2016-11-25T01:13:23.005Z,88.86
2016-11-25T01:14:03.692Z,88.91
2016-11-25T01:14:44.389Z,88.95
2016-11-25T01:15:25.172Z,88.91
2016-11-25T01:16:05.963Z,88.81
2016-11-25T01:16:46.636Z,89.14
2016-11-25T01:17:27.289Z,88.86
2016-11-25T01:18:07.946Z,89.05
2016-11-25T01:18:48.504Z,88.76
2016-11-25T01:19:29.078Z,88.76
2016-11-25T01:20:09.876Z,88.72
2016-11-25T01:20:50.698Z,88.62
2016-11-25T01:21:31.425Z,89.14
2016-11-25T01:22:12.092Z,89.29
2016-11-25T01:22:52.752Z,89.48
2016-11-25T01:23:33.467Z,89.76
2016-11-25T01:24:14.197Z,89.76
2016-11-25T01:24:54.859Z,89.67
2016-11-25T01:25:35.444Z,89.33
2016-11-25T01:26:16.143Z,88.91
2016-11-25T01:26:56.759Z,88.91
2016-11-25T01:27:37.431Z,89.29
2016-11-25T01:28:18.153Z,89.43
2016-11-25T01:28:58.994Z,89.58
2016-11-25T01:29:39.643Z,89.76
2016-11-25T01:30:20.279Z,89.76
2016-11-25T01:31:00.948Z,89.76
2016-11-25T01:31:41.635Z,89.76
2016-11-25T01:32:22.249Z,89.76
2016-11-25T01:33:02.903Z,89.86
2016-11-25T01:33:43.623Z,89.48
2016-11-25T01:34:24.206Z,90.24
2016-11-25T01:35:04.893Z,90.33
2016-11-25T01:35:45.648Z,89.95
2016-11-25T01:36:26.301Z,89.58
2016-11-25T01:37:07.100Z,89.58
2016-11-25T01:37:47.730Z,89.86
2016-11-25T01:38:28.587Z,90.05
2016-11-25T01:39:09.298Z,89.76
2016-11-25T01:39:49.888Z,89.58
2016-11-25T01:40:30.648Z,89.39
2016-11-25T01:41:11.392Z,89.76
2016-11-25T01:41:52.018Z,89.58
2016-11-25T01:42:32.680Z,89.39
2016-11-25T01:43:13.440Z,89.86
2016-11-25T01:43:54.250Z,89.67
2016-11-25T01:44:34.965Z,89.67
2016-11-25T01:45:15.699Z,89.48
2016-11-25T01:45:56.398Z,89.58
2016-11-25T01:46:36.995Z,89.58
2016-11-25T01:47:17.708Z,90.33
2016-11-25T01:47:58.347Z,89.86
2016-11-25T01:48:39.050Z,90.43
2016-11-25T01:49:19.741Z,90.24
2016-11-25T01:50:00.469Z,89.67
2016-11-25T01:50:41.334Z,90.24
2016-11-25T01:51:22.137Z,90.05
2016-11-25T01:52:02.819Z,90.05
2016-11-25T01:52:43.513Z,89.58
2016-11-25T01:53:24.254Z,90.24
2016-11-25T01:54:05.111Z,90.52
2016-11-25T01:54:45.932Z,90.19
2016-11-25T01:55:27.527Z,90.81
2016-11-25T01:56:08.299Z,90.81
2016-11-25T01:56:49.247Z,90.81
2016-11-25T01:57:29.936Z,90.9
2016-11-25T01:58:10.734Z,90.9
2016-11-25T01:58:51.460Z,90.67
2016-11-25T01:59:32.120Z,90.86
2016-11-25T02:00:12.786Z,90.95
2016-11-25T02:00:53.513Z,91
2016-11-25T02:01:34.218Z,90.76
2016-11-25T02:02:15.008Z,91.24
2016-11-25T02:02:55.550Z,91.14
2016-11-25T02:03:36.280Z,91.05
2016-11-25T02:04:17.794Z,90.62
2016-11-25T02:04:58.487Z,90.19
2016-11-25T02:05:39.145Z,90.9
2016-11-25T02:06:19.814Z,91.09
2016-11-25T02:07:00.506Z,90.9
2016-11-25T02:07:41.148Z,91.09
2016-11-25T02:08:21.845Z,90.86
2016-11-25T02:09:02.726Z,90.57
2016-11-25T02:09:43.380Z,90.86
2016-11-25T02:10:24.051Z,91.61
2016-11-25T02:11:04.747Z,90.86
2016-11-25T02:11:45.503Z,91.05
2016-11-25T02:12:26.317Z,91.71
2016-11-25T02:13:06.993Z,91.61
2016-11-25T02:13:47.577Z,91.42
2016-11-25T02:14:28.203Z,91.8
2016-11-25T02:15:09.064Z,91.8
2016-11-25T02:15:49.690Z,91.52
2016-11-25T02:16:30.424Z,91.71
2016-11-25T02:17:11.068Z,91.8
2016-11-25T02:17:51.702Z,91.42
2016-11-25T02:18:32.454Z,91.71
2016-11-25T02:19:13.160Z,91.99
2016-11-25T02:19:53.893Z,91.52
2016-11-25T02:20:34.524Z,91.52
2016-11-25T02:21:15.128Z,91.14
2016-11-25T02:21:55.686Z,91.05
2016-11-25T02:22:36.409Z,91.42
2016-11-25T02:23:16.972Z,91.52
2016-11-25T02:23:58.282Z,91.24
2016-11-25T02:24:38.958Z,90.76
2016-11-25T02:25:19.638Z,90.71
2016-11-25T02:26:00.322Z,90.86
2016-11-25T02:26:41.011Z,90.95
2016-11-25T02:27:21.571Z,90
2016-11-25T02:28:02.258Z,90.19
2016-11-25T02:28:42.907Z,90.1
2016-11-25T02:29:23.575Z,90.29
2016-11-25T02:30:04.223Z,90.52
2016-11-25T02:30:44.929Z,90.29
2016-11-25T02:32:58.386Z,90.19
2016-11-25T02:33:39.069Z,90.1
2016-11-25T02:34:19.971Z,90.19
2016-11-25T02:35:00.836Z,90.24
2016-11-25T02:35:41.549Z,89.86
2016-11-25T02:36:22.112Z,89.95
2016-11-25T02:37:02.716Z,90
2016-11-25T02:37:43.402Z,90.38
2016-11-25T02:38:24.135Z,90.76
2016-11-25T02:39:04.800Z,90.95
2016-11-25T02:39:45.452Z,90.86
2016-11-25T02:40:26.082Z,91.14
2016-11-25T02:41:06.751Z,91.05
2016-11-25T02:41:47.427Z,90.76
2016-11-25T02:42:28.054Z,90.1
2016-11-25T02:43:08.658Z,89.91
2016-11-25T02:43:49.489Z,90.38
2016-11-25T02:44:30.405Z,90.76
2016-11-25T02:45:11.189Z,91.61
2016-11-25T02:45:52.080Z,91.42
2016-11-25T02:46:33.059Z,91.05
2016-11-25T02:47:14.027Z,91.33
2016-11-25T02:47:54.877Z,91.61
2016-11-25T02:48:35.732Z,91.24
2016-11-25T02:49:16.367Z,91.33
2016-11-25T02:49:57.068Z,91.8
2016-11-25T02:50:37.810Z,92.28
2016-11-25T02:51:18.622Z,91.71
2016-11-25T02:51:59.292Z,91.42
2016-11-25T02:52:40.293Z,91.52
2016-11-25T02:53:21.041Z,91.8
2016-11-25T02:54:01.739Z,91.8
2016-11-25T02:54:42.559Z,92.18
2016-11-25T02:55:23.477Z,91.9
2016-11-25T02:56:04.181Z,92.28
2016-11-25T02:56:45.034Z,92.28
2016-11-25T02:57:25.891Z,92.28
2016-11-25T02:58:06.571Z,92.47
2016-11-25T02:58:47.244Z,92.28
2016-11-25T02:59:28.155Z,92.85
2016-11-25T03:00:08.948Z,92.09
2016-11-25T03:00:49.778Z,92.38
2016-11-25T03:02:37.347Z,92.09
2016-11-25T03:03:18.151Z,91.99
2016-11-25T03:03:58.962Z,92.18
2016-11-25T03:04:39.682Z,92.28
2016-11-25T03:05:20.395Z,91.8
2016-11-25T03:06:01.087Z,91.9
2016-11-25T03:06:41.837Z,92.09
2016-11-25T03:07:22.592Z,92.38
2016-11-25T03:08:03.386Z,92.76
2016-11-25T03:08:44.226Z,92.28
2016-11-25T03:09:25.151Z,92.66
2016-11-25T03:10:06.122Z,92.47
2016-11-25T03:10:46.954Z,91.9
2016-11-25T03:11:27.848Z,92.09
2016-11-25T03:12:09.255Z,92.28
2016-11-25T03:12:50.243Z,92.09
2016-11-25T03:13:30.999Z,91.9
2016-11-25T03:14:11.940Z,92.38
2016-11-25T03:14:52.740Z,92.23
2016-11-25T03:15:33.490Z,92.09
2016-11-25T03:16:14.252Z,92.09
2016-11-25T03:16:54.947Z,91.99
2016-11-25T03:17:35.822Z,92.09
2016-11-25T03:18:16.806Z,92.09
2016-11-25T03:18:57.648Z,92.23
2016-11-25T03:19:38.485Z,92.38
2016-11-25T03:20:19.397Z,91.9
2016-11-25T03:22:38.355Z,91.71
2016-11-25T03:23:19.136Z,91.8
2016-11-25T03:23:59.848Z,91.8
2016-11-25T03:24:40.533Z,91.99
2016-11-25T03:25:21.488Z,91.8
2016-11-25T03:26:02.294Z,92.09
2016-11-25T03:26:43.132Z,91.9
2016-11-25T03:27:24.118Z,92.28
2016-11-25T03:28:05.227Z,92.09
2016-11-25T03:28:46.359Z,91.8
2016-11-25T03:29:27.234Z,91.9
2016-11-25T03:30:08.025Z,92.18
2016-11-25T03:30:49.045Z,92.04
2016-11-25T03:31:30.016Z,92.47
2016-11-25T03:32:11.125Z,92.52
2016-11-25T03:32:52.020Z,91.95
2016-11-25T03:33:32.813Z,91.99
2016-11-25T03:34:13.758Z,92.09
2016-11-25T03:34:54.528Z,91.9
2016-11-25T03:35:35.499Z,92.18
2016-11-25T03:36:16.479Z,91.9
2016-11-25T03:36:57.156Z,91.8
2016-11-25T03:37:38.431Z,91.9
2016-11-25T03:38:19.436Z,91.85
2016-11-25T03:39:00.700Z,92.23
2016-11-25T03:39:41.752Z,92.71
2016-11-25T03:40:22.697Z,93.27
2016-11-25T03:41:03.706Z,92.8
2016-11-25T03:41:44.572Z,92.99
2016-11-25T03:42:25.998Z,93.27
2016-11-25T03:43:06.699Z,93.18
2016-11-25T03:43:47.706Z,92.61
2016-11-25T03:44:28.487Z,93.27
2016-11-25T03:45:09.614Z,93.27
2016-11-25T03:45:50.482Z,93.27
2016-11-25T03:46:31.320Z,93.37
2016-11-25T03:47:12.387Z,93.27
2016-11-25T03:47:53.417Z,92.71
2016-11-25T03:48:34.340Z,92.23
2016-11-25T03:49:15.168Z,93.08
2016-11-25T03:49:56.043Z,93.08
2016-11-25T03:50:37.019Z,92.99
2016-11-25T03:51:17.957Z,92.71
2016-11-25T03:51:58.897Z,93.37
2016-11-25T03:52:39.990Z,93.18
2016-11-25T03:53:21.227Z,93.18
2016-11-25T03:54:02.306Z,92.9
2016-11-25T03:54:43.478Z,92.61
2016-11-25T03:55:24.465Z,92.9
2016-11-25T03:56:05.701Z,92.8
2016-11-25T03:56:46.878Z,92.99
2016-11-25T03:57:28.022Z,92.52
2016-11-25T03:58:09.153Z,92.71
2016-11-25T03:58:50.113Z,92.18
2016-11-25T03:59:31.059Z,92.18
2016-11-25T04:00:11.940Z,91.9
2016-11-25T04:00:52.893Z,91.85
2016-11-25T04:01:33.854Z,92.04
2016-11-25T04:02:15.122Z,92.99
2016-11-25T04:02:56.230Z,92.42
2016-11-25T04:03:37.477Z,92.71
2016-11-25T04:04:18.585Z,92.52
2016-11-25T04:04:59.654Z,92.61
2016-11-25T04:05:40.714Z,93.37
2016-11-25T04:06:21.929Z,92.61
2016-11-25T04:07:02.782Z,93.08
2016-11-25T04:07:43.631Z,93.56
2016-11-25T04:08:24.870Z,93.08
2016-11-25T04:09:06.091Z,93.08
2016-11-25T04:09:47.129Z,92.71
2016-11-25T04:10:28.255Z,92.42
2016-11-25T04:11:09.373Z,91.76
2016-11-25T04:11:50.318Z,91.95
2016-11-25T04:12:31.219Z,91.95
2016-11-25T04:13:12.291Z,92.42
2016-11-25T04:13:53.379Z,92.23
2016-11-25T04:14:34.480Z,92.04
2016-11-25T04:15:15.853Z,91.85
2016-11-25T04:15:56.832Z,91.85
2016-11-25T04:16:37.935Z,91.76
2016-11-25T04:17:19.117Z,91.95
2016-11-25T04:18:00.313Z,92.42
2016-11-25T04:18:41.400Z,92.23
2016-11-25T04:19:23.388Z,92.33
2016-11-25T04:20:04.562Z,92.33
2016-11-25T04:20:45.420Z,92.9
2016-11-25T04:21:26.485Z,92.71
2016-11-25T04:22:07.656Z,92.61
2016-11-25T04:22:48.683Z,92.42
2016-11-25T04:23:29.722Z,92.8
2016-11-25T04:24:11.240Z,92.9
2016-11-25T04:24:52.295Z,93.08
2016-11-25T04:25:33.255Z,92.9
2016-11-25T04:26:14.151Z,93.18
2016-11-25T04:26:55.230Z,92.71
2016-11-25T04:27:35.986Z,92.42
2016-11-25T04:28:17.135Z,92.61
2016-11-25T04:28:58.208Z,92.8
2016-11-25T04:29:39.737Z,92.71
2016-11-25T04:30:20.737Z,92.71
2016-11-25T04:31:02.157Z,93.08
2016-11-25T04:31:43.125Z,92.61
2016-11-25T04:32:24.623Z,92.71
2016-11-25T04:33:05.884Z,92.52
2016-11-25T04:33:46.631Z,93.08
2016-11-25T04:34:27.647Z,92.71
2016-11-25T04:35:08.764Z,92.9
2016-11-25T04:35:49.492Z,92.99
2016-11-25T04:36:30.657Z,93.08
2016-11-25T04:37:11.702Z,93.46
2016-11-25T04:37:52.436Z,93.18
2016-11-25T04:38:33.337Z,93.08
2016-11-25T04:39:14.113Z,93.46
2016-11-25T04:39:54.976Z,92.99
2016-11-25T04:40:35.997Z,93.37
2016-11-25T04:41:17.089Z,92.9
2016-11-25T04:41:57.816Z,92.61
2016-11-25T04:42:38.634Z,92.9
2016-11-25T04:43:19.867Z,93.46
2016-11-25T04:44:00.840Z,93.65
2016-11-25T04:44:41.900Z,93.56
2016-11-25T04:45:22.822Z,93.27
2016-11-25T04:46:03.942Z,93.18
2016-11-25T04:46:44.905Z,93.37
2016-11-25T04:47:26.039Z,93.75
2016-11-25T04:48:07.480Z,93.75
2016-11-25T04:48:48.763Z,93.65
2016-11-25T04:49:29.700Z,93.75
2016-11-25T04:50:10.746Z,93.84
2016-11-25T04:50:51.689Z,93.56
2016-11-25T04:52:49.529Z,93.84
2016-11-25T04:53:30.436Z,93.37
2016-11-25T04:54:11.443Z,92.9
2016-11-25T04:54:52.508Z,93.37
2016-11-25T04:55:33.239Z,93.65
2016-11-25T04:56:14.374Z,93.56
2016-11-25T04:56:55.338Z,93.18
2016-11-25T04:57:36.091Z,93.56
2016-11-25T04:58:17.010Z,93.46
2016-11-25T04:58:58.362Z,93.37
2016-11-25T04:59:39.405Z,92.9
2016-11-25T05:00:20.661Z,92.8
2016-11-25T05:01:01.681Z,92.61
2016-11-25T05:01:42.799Z,92.8
2016-11-25T05:02:23.547Z,92.71
2016-11-25T05:03:04.769Z,92.71
2016-11-25T05:03:45.604Z,92.42
2016-11-25T05:04:26.606Z,92.71
2016-11-25T05:05:07.505Z,92.33
2016-11-25T05:05:48.763Z,92.71
2016-11-25T05:06:29.776Z,92.14
2016-11-25T05:07:10.798Z,91.85
2016-11-25T05:07:51.954Z,92.14
2016-11-25T05:08:33.440Z,92.33
2016-11-25T05:09:14.253Z,92.61
2016-11-25T05:09:55.492Z,92.61
2016-11-25T05:10:36.665Z,92.71
2016-11-25T05:11:17.949Z,92.42
2016-11-25T05:11:58.722Z,92.52
2016-11-25T05:12:39.676Z,92.33
2016-11-25T05:13:20.705Z,91.76
2016-11-25T05:14:01.583Z,92.42
2016-11-25T05:14:42.684Z,91.85
2016-11-25T05:15:23.811Z,92.04
2016-11-25T05:16:04.837Z,92.23
2016-11-25T05:16:46.014Z,91.76
2016-11-25T05:17:27.042Z,92.04
2016-11-25T05:18:08.344Z,92.04
2016-11-25T05:18:49.271Z,91.95
2016-11-25T05:19:30.471Z,91.95
2016-11-25T05:20:11.321Z,91.85
2016-11-25T05:20:52.498Z,92.14
2016-11-25T05:21:33.365Z,92.23
2016-11-25T05:22:14.201Z,91.85
2016-11-25T05:22:55.140Z,92.14
2016-11-25T05:23:36.292Z,91.66
2016-11-25T05:24:17.287Z,91.66
2016-11-25T05:24:58.070Z,91.38
2016-11-25T05:25:39.153Z,91.95
2016-11-25T05:26:20.132Z,91.66
2016-11-25T05:27:01.081Z,91.57
2016-11-25T05:27:42.197Z,91.76
2016-11-25T05:28:23.065Z,91.76
2016-11-25T05:29:04.214Z,91.66
2016-11-25T05:29:45.167Z,92
2016-11-25T05:30:25.986Z,91.95
2016-11-25T05:31:06.923Z,92.14
2016-11-25T05:31:48.005Z,92.09
2016-11-25T05:32:28.833Z,92.04
2016-11-25T05:33:09.600Z,91.76
2016-11-25T05:33:50.492Z,92.04
2016-11-25T05:34:31.687Z,92.61
2016-11-25T05:35:12.645Z,91.85
2016-11-25T05:35:53.763Z,92.04
2016-11-25T05:36:34.737Z,91.85
2016-11-25T05:37:15.674Z,91.76
2016-11-25T05:37:56.713Z,92.04
2016-11-25T05:38:37.579Z,91.76
2016-11-25T05:39:18.373Z,91.38
2016-11-25T05:39:59.709Z,91.47
2016-11-25T05:40:40.426Z,91.47
2016-11-25T05:41:21.435Z,91.19
2016-11-25T05:42:02.362Z,91.66
2016-11-25T05:42:43.319Z,91.57
2016-11-25T05:43:24.266Z,91.19
2016-11-25T05:44:05.194Z,91.38
2016-11-25T05:44:46.250Z,91.19
2016-11-25T05:45:26.980Z,91.09
2016-11-25T05:46:08.143Z,91.19
2016-11-25T05:46:48.892Z,91.38
2016-11-25T05:47:29.782Z,91.09
2016-11-25T05:48:10.556Z,91.09
2016-11-25T05:48:51.419Z,91.43
2016-11-25T05:49:32.283Z,91.52
2016-11-25T05:50:13.023Z,91.85
2016-11-25T05:50:53.985Z,91.66
2016-11-25T05:51:34.938Z,91.38
2016-11-25T05:52:15.737Z,91.43
2016-11-25T05:52:56.466Z,91.66
2016-11-25T05:53:37.354Z,91.47
2016-11-25T05:54:18.092Z,91.33
2016-11-25T05:54:59.055Z,91.38
2016-11-25T05:55:40.073Z,91.66
2016-11-25T05:56:20.924Z,91.38
2016-11-25T05:57:01.786Z,91.52
2016-11-25T05:57:42.715Z,91.57
2016-11-25T05:58:23.638Z,91.62
2016-11-25T05:59:04.614Z,91.43
2016-11-25T05:59:45.451Z,91.81
2016-11-25T06:00:26.195Z,91.9
2016-11-25T06:01:07.027Z,91.71
2016-11-25T06:01:47.917Z,91.81
2016-11-25T06:02:28.730Z,91.9
2016-11-25T06:03:09.617Z,91.81
2016-11-25T06:03:50.576Z,91.9
2016-11-25T06:04:31.215Z,91.9
2016-11-25T06:05:12.179Z,92.09
2016-11-25T06:05:53.118Z,91.81
2016-11-25T06:06:34.101Z,91.71
2016-11-25T06:07:14.915Z,92
2016-11-25T06:07:55.735Z,91.81
2016-11-25T06:08:36.509Z,91.9
2016-11-25T06:09:17.226Z,91.62
2016-11-25T06:09:58.066Z,92
2016-11-25T06:10:39.034Z,91.81
2016-11-25T06:11:20.054Z,92.09
2016-11-25T06:12:01.121Z,92
2016-11-25T06:12:41.992Z,91.24
2016-11-25T06:13:22.770Z,91.24
2016-11-25T06:14:03.651Z,91.43
2016-11-25T06:14:44.388Z,91.62
2016-11-25T06:15:25.344Z,91.52
2016-11-25T06:16:06.110Z,91.24
2016-11-25T06:16:47.004Z,91.71
2016-11-25T06:17:27.946Z,91.9
2016-11-25T06:18:08.786Z,92
2016-11-25T06:18:49.660Z,91.81
2016-11-25T06:19:30.562Z,91.52
2016-11-25T06:20:11.505Z,92.09
2016-11-25T06:20:52.451Z,91.81
2016-11-25T06:21:33.382Z,92.57
2016-11-25T06:22:14.135Z,92.57
2016-11-25T06:22:55.127Z,92.66
2016-11-25T06:23:35.961Z,92
2016-11-25T06:24:16.963Z,91.9
2016-11-25T06:24:57.889Z,92.38
2016-11-25T06:25:38.768Z,92.85
2016-11-25T06:26:19.787Z,92.66
2016-11-25T06:27:00.842Z,92.47
2016-11-25T06:27:41.539Z,92.19
2016-11-25T06:28:22.352Z,92.09
2016-11-25T06:29:03.052Z,92.57
2016-11-25T06:29:43.864Z,92.85
2016-11-25T06:30:24.673Z,92.76
2016-11-25T06:31:05.636Z,92.66
2016-11-25T06:31:46.637Z,92
2016-11-25T06:32:27.404Z,91.9
2016-11-25T06:33:08.187Z,92.09
2016-11-25T06:33:49.018Z,92.09
2016-11-25T06:34:29.854Z,91.9
2016-11-25T06:35:10.731Z,91.81
2016-11-25T06:35:51.499Z,91.9
2016-11-25T06:36:32.494Z,92
2016-11-25T06:37:13.617Z,91.71
2016-11-25T06:37:54.586Z,91.81
2016-11-25T06:38:35.196Z,91.81
2016-11-25T06:39:16.046Z,91.14
2016-11-25T06:39:56.592Z,91.52
2016-11-25T06:40:37.390Z,90.77
2016-11-25T06:41:18.049Z,91.14
2016-11-25T06:41:59.062Z,91.43
2016-11-25T06:42:39.767Z,91.14
2016-11-25T06:43:20.513Z,91.62
2016-11-25T06:44:01.206Z,91.9
2016-11-25T06:44:41.925Z,91.43
2016-11-25T06:45:22.761Z,91.33
2016-11-25T06:46:03.657Z,91.43
2016-11-25T06:46:44.435Z,91.43
2016-11-25T06:47:25.230Z,91.33
2016-11-25T06:48:06.236Z,91.05
2016-11-25T06:48:47.010Z,91.33
2016-11-25T06:49:27.895Z,90.77
2016-11-25T06:50:08.789Z,90.95
2016-11-25T06:50:49.743Z,90.67
2016-11-25T06:51:30.705Z,90.95
2016-11-25T06:52:11.526Z,90.77
2016-11-25T06:52:52.674Z,90.67
2016-11-25T06:53:33.617Z,90.77
2016-11-25T06:54:14.425Z,90.86
2016-11-25T06:54:55.195Z,90.95
2016-11-25T06:55:35.906Z,91.14
2016-11-25T06:56:16.678Z,90.67
2016-11-25T06:56:57.368Z,91.05
2016-11-25T06:57:38.173Z,90.67
2016-11-25T06:58:18.848Z,90.48
2016-11-25T06:58:59.621Z,90.48
2016-11-25T06:59:40.426Z,90.77
2016-11-25T07:00:21.339Z,90.77
2016-11-25T07:01:02.392Z,90.67
2016-11-25T07:01:43.072Z,90.67
2016-11-25T07:02:24.018Z,89.82
2016-11-25T07:03:05.046Z,89.91
2016-11-25T07:03:45.924Z,90.1
2016-11-25T07:04:26.845Z,90.1
2016-11-25T07:05:07.717Z,90.1
2016-11-25T07:05:48.672Z,89.72
2016-11-25T07:06:29.498Z,90.29
2016-11-25T07:07:10.113Z,89.72
2016-11-25T07:07:51.028Z,89.53
2016-11-25T07:08:31.882Z,89.82
2016-11-25T07:09:12.712Z,89.44
2016-11-25T07:09:53.647Z,90.01
2016-11-25T07:10:34.673Z,89.53
2016-11-25T07:11:15.628Z,90.1
2016-11-25T07:11:56.373Z,90.29
2016-11-25T07:12:37.348Z,90.1
2016-11-25T07:13:18.259Z,90.39
2016-11-25T07:13:59.062Z,89.91
2016-11-25T07:14:40.711Z,90.1
2016-11-25T07:15:21.568Z,89.82
2016-11-25T07:16:02.534Z,90.2
2016-11-25T07:16:43.477Z,90.29
2016-11-25T07:17:24.423Z,90.1
2016-11-25T07:18:05.286Z,90.29
2016-11-25T07:18:46.099Z,90.1
2016-11-25T07:19:26.972Z,90.01
2016-11-25T07:20:08.002Z,90.1
2016-11-25T07:20:48.975Z,90.2
2016-11-25T07:21:29.717Z,90.29
2016-11-25T07:22:10.370Z,90.1
2016-11-25T07:22:51.518Z,90.39
2016-11-25T07:23:32.583Z,89.91
2016-11-25T07:24:13.300Z,90.1
2016-11-25T07:24:54.257Z,90.2
2016-11-25T07:25:35.164Z,89.72
2016-11-25T07:26:16.380Z,89.91
2016-11-25T07:26:57.379Z,89.91
2016-11-25T07:27:38.315Z,90.1
2016-11-25T07:28:19.389Z,90.2
2016-11-25T07:29:00.275Z,89.82
2016-11-25T07:29:41.675Z,90.29
2016-11-25T07:30:22.818Z,90.1
2016-11-25T07:31:03.614Z,90.2
2016-11-25T07:31:44.483Z,90.1
2016-11-25T07:32:25.444Z,90.1
2016-11-25T07:33:06.142Z,90.29
2016-11-25T07:33:47.101Z,89.91
2016-11-25T07:34:27.801Z,90.2
2016-11-25T07:35:08.734Z,90.1
2016-11-25T07:35:49.466Z,89.34
2016-11-25T07:36:30.238Z,89.63
2016-11-25T07:37:11.114Z,89.44
2016-11-25T07:39:09.858Z,89.15
2016-11-25T07:39:50.999Z,89.34
2016-11-25T07:40:32.060Z,89.15
2016-11-25T07:41:13.897Z,89.34
2016-11-25T07:41:55.181Z,88.78
2016-11-25T07:42:36.050Z,88.59
2016-11-25T07:43:16.968Z,88.49
2016-11-25T07:43:57.930Z,89.06
2016-11-25T07:44:38.714Z,89.15
2016-11-25T07:45:19.597Z,89.34
2016-11-25T07:46:00.319Z,88.96
2016-11-25T07:46:41.417Z,88.87
2016-11-25T07:47:22.250Z,88.96
2016-11-25T07:48:03.133Z,89.15
2016-11-25T07:48:43.997Z,88.96
2016-11-25T07:49:25.007Z,88.96
2016-11-25T07:50:05.775Z,88.4
2016-11-25T07:50:46.879Z,88.4
2016-11-25T07:51:27.739Z,88.59
2016-11-25T07:52:08.555Z,88.68
2016-11-25T07:52:49.427Z,88.49
2016-11-25T07:53:30.070Z,88.4
2016-11-25T07:54:11.037Z,88.49
2016-11-25T07:54:51.900Z,88.49
2016-11-25T07:55:33.035Z,88.68
2016-11-25T07:56:13.814Z,88.59
2016-11-25T07:56:54.438Z,88.4
2016-11-25T07:57:35.379Z,88.11
2016-11-25T07:58:16.169Z,88.68
2016-11-25T07:58:56.946Z,88.59
2016-11-25T07:59:38.085Z,88.35
2016-11-25T08:00:19.062Z,88.16
2016-11-25T08:00:59.974Z,88.25
2016-11-25T08:01:41.011Z,88.11
2016-11-25T08:02:21.673Z,88.16
2016-11-25T08:03:02.556Z,88.06
2016-11-25T08:03:43.422Z,88.25
2016-11-25T08:04:24.385Z,88.16
2016-11-25T08:05:05.182Z,88.25
2016-11-25T08:05:45.927Z,87.59
2016-11-25T08:06:26.670Z,87.49
2016-11-25T08:07:07.409Z,87.49
2016-11-25T08:07:48.078Z,87.77
2016-11-25T08:08:28.966Z,87.68
2016-11-25T08:09:09.796Z,87.02
2016-11-25T08:09:50.560Z,87.4
2016-11-25T08:10:31.437Z,87.12
2016-11-25T08:11:12.031Z,87.49
2016-11-25T08:11:52.900Z,87.02
2016-11-25T08:12:33.639Z,87.12
2016-11-25T08:13:14.608Z,86.83
2016-11-25T08:13:55.493Z,86.26
2016-11-25T08:14:36.486Z,86.64
2016-11-25T08:15:17.813Z,86.35
2016-11-25T08:15:58.635Z,86.26
2016-11-25T08:16:39.483Z,86.45
2016-11-25T08:17:20.511Z,85.41
2016-11-25T08:18:01.375Z,85.5
2016-11-25T08:18:42.344Z,85.31
2016-11-25T08:19:23.134Z,85.5
2016-11-25T08:20:03.967Z,85.13
2016-11-25T08:20:44.765Z,85.6
2016-11-25T08:21:25.516Z,85.6
2016-11-25T08:22:06.219Z,85.41
2016-11-25T08:24:19.190Z,84.78
2016-11-25T08:26:11.725Z,84.5
2016-11-25T08:26:52.378Z,84.22
2016-11-25T08:27:33.068Z,84.03
2016-11-25T08:28:13.770Z,83.55
2016-11-25T08:28:54.610Z,83.74
2016-11-25T08:29:35.464Z,83.46
2016-11-25T08:30:16.311Z,83.36
2016-11-25T08:30:57.106Z,82.79
2016-11-25T08:31:38.051Z,82.7
2016-11-25T08:32:18.954Z,82.6
2016-11-25T08:32:59.627Z,82.98
2016-11-25T08:33:40.568Z,82.42
2016-11-25T08:34:21.368Z,82.42
2016-11-25T08:35:02.325Z,82.7
2016-11-25T08:35:43.333Z,81.85
2016-11-25T08:36:24.397Z,81.75
2016-11-25T08:37:05.332Z,81.94
2016-11-25T08:37:46.084Z,81.56
2016-11-25T08:38:26.857Z,81.66
2016-11-25T08:39:07.753Z,81.66
2016-11-25T08:39:48.669Z,81.75
2016-11-25T08:40:29.562Z,82.23
2016-11-25T08:41:11.067Z,81.56
2016-11-25T08:41:51.949Z,81.79
2016-11-25T08:42:32.844Z,81.23
2016-11-25T08:43:13.652Z,81.04
2016-11-25T08:43:54.659Z,80.84
2016-11-25T08:44:35.511Z,79.99
2016-11-25T08:45:16.316Z,80.65
2016-11-25T08:45:57.224Z,80.56
2016-11-25T08:46:37.992Z,80.18
2016-11-25T08:47:18.718Z,79.71
2016-11-25T08:47:59.447Z,79.04
2016-11-25T08:48:40.435Z,79.33
2016-11-25T08:49:21.163Z,79.14
2016-11-25T08:50:02.003Z,79.42
2016-11-25T08:50:42.770Z,79.14
2016-11-25T08:51:23.593Z,79.04
2016-11-25T08:52:04.389Z,78.85
2016-11-25T08:52:45.383Z,78.47
2016-11-25T08:53:26.415Z,78
2016-11-25T08:54:07.407Z,78.03
2016-11-25T08:54:48.357Z,78.13
2016-11-25T08:55:29.044Z,78.13
2016-11-25T08:56:09.984Z,77.66
2016-11-25T08:56:50.849Z,76.9
2016-11-25T08:57:31.858Z,76.8
2016-11-25T08:58:12.906Z,76.71
2016-11-25T08:58:53.654Z,76.71